Time;durP1;ratioP1;P1;durP2;ratioP2;P2;SDS_P1;SDS_P2;PMS_P1;PMS_P2;Temp;Humidity;BMP_temperature;BMP_pressure;BME280_temperature;BME280_humidity;BME280_pressure;Samples;Min_cycle;Max_cycle;Signal;HPM_P1;HPM_P2
2021/12/26 00:00:31;;;;;;;69.57;50.67;;;;;;;;;;5017035;28;20030;-60
2021/12/26 00:02:58;;;;;;;74.77;49.60;;;;;;;;;;5022877;28;20422;-61
2021/12/26 00:05:24;;;;;;;72.07;51.37;;;;;;;;;;5013416;28;20018;-61
2021/12/26 00:07:50;;;;;;;71.13;49.57;;;;;;;;;;5014081;28;20026;-61
2021/12/26 00:10:18;;;;;;;69.57;48.27;;;;;;;;;;5017589;28;20025;-61
2021/12/26 00:12:44;;;;;;;67.13;45.57;;;;;;;;;;5010937;28;21042;-61
2021/12/26 00:15:10;;;;;;;68.10;46.70;;;;;;;;;;5010802;28;20026;-60
2021/12/26 00:17:37;;;;;;;66.73;45.23;;;;;;;;;;4994357;28;20088;-61
2021/12/26 00:20:04;;;;;;;70.27;47.47;;;;;;;;;;5012037;28;20036;-61
2021/12/26 00:22:30;;;;;;;64.03;44.33;;;;;;;;;;5012711;28;20049;-61
2021/12/26 00:24:56;;;;;;;65.17;44.10;;;;;;;;;;5011297;28;20034;-61
2021/12/26 00:27:22;;;;;;;65.47;43.03;;;;;;;;;;5012879;28;20026;-61
2021/12/26 00:29:48;;;;;;;60.00;42.20;;;;;;;;;;5011608;28;20229;-61
2021/12/26 00:32:14;;;;;;;57.43;40.73;;;;;;;;;;5012678;28;20084;-61
2021/12/26 00:34:41;;;;;;;60.87;42.63;;;;;;;;;;5012332;28;20030;-62
2021/12/26 00:37:07;;;;;;;64.10;43.33;;;;;;;;;;5012317;28;20241;-61
2021/12/26 00:39:34;;;;;;;58.37;40.67;;;;;;;;;;5011525;28;20029;-61
2021/12/26 00:42:00;;;;;;;62.83;42.07;;;;;;;;;;5012815;28;20034;-61
2021/12/26 00:44:27;;;;;;;60.67;41.87;;;;;;;;;;5010178;28;20029;-61
2021/12/26 00:46:56;;;;;;;60.77;41.53;;;;;;;;;;5011661;28;20034;-62
2021/12/26 00:49:23;;;;;;;60.03;41.70;;;;;;;;;;5013247;28;20033;-61
2021/12/26 00:51:50;;;;;;;57.77;39.83;;;;;;;;;;4995715;28;20365;-61
2021/12/26 00:54:16;;;;;;;56.47;39.97;;;;;;;;;;5011117;28;20053;-61
2021/12/26 00:56:42;;;;;;;59.63;41.70;;;;;;;;;;5011631;28;20022;-61
2021/12/26 00:59:08;;;;;;;58.50;41.70;;;;;;;;;;4992084;28;20034;-61
2021/12/26 01:01:34;;;;;;;59.93;40.93;;;;;;;;;;5010099;28;20117;-62
2021/12/26 01:04:00;;;;;;;59.17;41.43;;;;;;;;;;5005813;28;20109;-62
2021/12/26 01:06:28;;;;;;;55.53;39.70;;;;;;;;;;5010509;28;20026;-62
2021/12/26 01:08:54;;;;;;;53.63;39.93;;;;;;;;;;5011825;28;20038;-62
2021/12/26 01:11:37;;;;;;;61.03;41.87;;;;;;;;;;5011585;28;20045;-62
2021/12/26 01:14:05;;;;;;;58.27;41.43;;;;;;;;;;4982570;28;20026;-62
2021/12/26 01:16:31;;;;;;;56.83;39.93;;;;;;;;;;5012367;28;20479;-61
2021/12/26 01:19:05;;;;;;;57.37;42.23;;;;;;;;;;5010833;28;20164;-62
2021/12/26 01:21:31;;;;;;;59.55;41.90;;;;;;;;;;5012138;28;20112;-62
2021/12/26 01:23:59;;;;;;;57.93;43.00;;;;;;;;;;5010873;28;20030;-62
2021/12/26 01:26:26;;;;;;;63.63;41.97;;;;;;;;;;4998115;28;20149;-61
2021/12/26 01:28:52;;;;;;;61.33;43.20;;;;;;;;;;5015486;28;20562;-62
2021/12/26 01:31:20;;;;;;;60.23;44.57;;;;;;;;;;5015363;28;20029;-61
2021/12/26 01:33:47;;;;;;;62.67;45.50;;;;;;;;;;5015420;28;20865;-61
2021/12/26 01:36:13;;;;;;;61.40;43.20;;;;;;;;;;5015256;28;20105;-62
2021/12/26 01:38:39;;;;;;;64.27;43.77;;;;;;;;;;5013419;28;20129;-62
2021/12/26 01:41:10;;;;;;;60.23;44.17;;;;;;;;;;5015777;28;20443;-61
2021/12/26 01:43:37;;;;;;;61.73;43.03;;;;;;;;;;5014946;28;20045;-61
2021/12/26 01:46:03;;;;;;;64.27;44.63;;;;;;;;;;5016258;28;20026;-61
2021/12/26 01:48:29;;;;;;;64.77;47.03;;;;;;;;;;4991275;28;20088;-61
2021/12/26 01:50:55;;;;;;;64.83;46.53;;;;;;;;;;5013032;28;20021;-61
2021/12/26 01:53:24;;;;;;;61.50;44.23;;;;;;;;;;5013706;28;20384;-61
2021/12/26 01:55:51;;;;;;;61.57;45.87;;;;;;;;;;5015347;28;20025;-61
2021/12/26 01:58:28;;;;;;;66.77;47.03;;;;;;;;;;5014795;28;20084;-62
2021/12/26 02:00:56;;;;;;;63.50;44.50;;;;;;;;;;5016129;28;20022;-61
2021/12/26 02:03:22;;;;;;;59.77;42.97;;;;;;;;;;5015093;28;20041;-61
2021/12/26 02:05:48;;;;;;;65.07;45.80;;;;;;;;;;5013089;28;20022;-62
2021/12/26 02:08:14;;;;;;;66.97;46.53;;;;;;;;;;5014297;28;20030;-62
2021/12/26 02:10:41;;;;;;;61.90;45.33;;;;;;;;;;4997367;28;20105;-62
2021/12/26 02:13:07;;;;;;;63.67;45.50;;;;;;;;;;5015714;28;20053;-62
2021/12/26 02:15:33;;;;;;;62.63;45.90;;;;;;;;;;5014146;28;20084;-61
2021/12/26 02:17:59;;;;;;;67.93;45.70;;;;;;;;;;5013740;28;20030;-61
2021/12/26 02:20:31;;;;;;;64.67;46.13;;;;;;;;;;5014717;28;20022;-62
2021/12/26 02:23:04;;;;;;;63.53;44.40;;;;;;;;;;5015487;28;20037;-61
2021/12/26 02:27:31;;;;;;;63.47;44.87;;;;;;;;;;5017611;28;20502;-62
2021/12/26 02:28:18;;;;;;;65.57;44.77;;;;;;;;;;5015257;28;20048;-61
2021/12/26 02:30:44;;;;;;;61.47;44.87;;;;;;;;;;5013166;28;20108;-62
2021/12/26 02:33:11;;;;;;;65.27;46.60;;;;;;;;;;5015172;28;20113;-62
2021/12/26 02:35:38;;;;;;;66.00;45.40;;;;;;;;;;4995619;28;20044;-62
2021/12/26 02:38:05;;;;;;;67.43;45.83;;;;;;;;;;5015056;28;20030;-62
2021/12/26 02:40:31;;;;;;;64.53;45.83;;;;;;;;;;5013245;28;20505;-61
2021/12/26 02:42:57;;;;;;;64.07;44.93;;;;;;;;;;5014648;28;20084;-61
2021/12/26 02:45:23;;;;;;;64.53;44.40;;;;;;;;;;5005704;28;20030;-62
2021/12/26 02:47:49;;;;;;;59.63;41.43;;;;;;;;;;5007253;28;20121;-62
2021/12/26 02:50:16;;;;;;;62.07;42.43;;;;;;;;;;5014492;28;20030;-61
2021/12/26 02:52:42;;;;;;;66.50;45.33;;;;;;;;;;5013931;28;20403;-62
2021/12/26 02:55:09;;;;;;;62.80;44.60;;;;;;;;;;5011718;28;20480;-62
2021/12/26 02:57:35;;;;;;;64.60;44.73;;;;;;;;;;5009688;28;20025;-61
2021/12/26 03:00:12;;;;;;;64.30;44.57;;;;;;;;;;5009628;28;20033;-61
2021/12/26 03:02:41;;;;;;;63.73;45.13;;;;;;;;;;5010774;28;20538;-61
2021/12/26 03:05:08;;;;;;;59.30;43.50;;;;;;;;;;5007192;28;20026;-62
2021/12/26 03:07:34;;;;;;;66.60;45.87;;;;;;;;;;5007627;28;20337;-61
2021/12/26 03:10:00;;;;;;;61.90;44.60;;;;;;;;;;5007276;28;20023;-62
2021/12/26 03:12:32;;;;;;;61.17;44.00;;;;;;;;;;4994476;28;20022;-62
2021/12/26 03:14:58;;;;;;;66.40;45.67;;;;;;;;;;5007280;28;20034;-61
2021/12/26 03:17:24;;;;;;;64.00;44.47;;;;;;;;;;5013417;28;20026;-61
2021/12/26 03:19:50;;;;;;;63.87;45.40;;;;;;;;;;5012560;28;20037;-61
2021/12/26 03:22:16;;;;;;;69.70;46.13;;;;;;;;;;5014206;28;20042;-61
2021/12/26 03:24:43;;;;;;;67.47;46.63;;;;;;;;;;4995590;28;20113;-61
2021/12/26 03:27:10;;;;;;;67.67;46.27;;;;;;;;;;5013332;28;20069;-61
2021/12/26 03:29:36;;;;;;;64.30;46.27;;;;;;;;;;5012920;28;20050;-61
2021/12/26 03:32:02;;;;;;;66.17;45.77;;;;;;;;;;5012724;28;20100;-62
2021/12/26 03:34:28;;;;;;;65.43;46.43;;;;;;;;;;4995051;28;20022;-62
2021/12/26 03:36:56;;;;;;;69.20;46.60;;;;;;;;;;5013418;28;20041;-61
2021/12/26 03:39:22;;;;;;;65.07;46.83;;;;;;;;;;5012967;28;20017;-61
2021/12/26 03:41:48;;;;;;;64.93;44.77;;;;;;;;;;5011498;28;20038;-61
2021/12/26 03:44:14;;;;;;;65.97;45.13;;;;;;;;;;5012583;28;20018;-62
2021/12/26 03:46:40;;;;;;;67.37;46.20;;;;;;;;;;5013352;28;20411;-61
2021/12/26 03:49:06;;;;;;;61.30;43.03;;;;;;;;;;5013429;28;20024;-61
2021/12/26 03:51:33;;;;;;;66.73;45.97;;;;;;;;;;5002830;28;20036;-61
2021/12/26 03:54:00;;;;;;;62.63;42.77;;;;;;;;;;5012200;28;20464;-61
2021/12/26 03:56:28;;;;;;;66.13;43.97;;;;;;;;;;5007442;28;20507;-62
2021/12/26 03:58:54;;;;;;;60.97;43.77;;;;;;;;;;5011874;28;20079;-61
2021/12/26 04:01:20;;;;;;;58.37;43.93;;;;;;;;;;4995874;28;20395;-61
2021/12/26 04:03:46;;;;;;;58.40;43.43;;;;;;;;;;5011668;28;20038;-61
2021/12/26 04:06:12;;;;;;;62.07;42.87;;;;;;;;;;5008726;28;20022;-61
2021/12/26 04:08:38;;;;;;;54.20;41.20;;;;;;;;;;4994610;28;20030;-61
2021/12/26 04:11:04;;;;;;;61.17;43.10;;;;;;;;;;5012878;28;20033;-61
2021/12/26 04:13:31;;;;;;;56.90;41.97;;;;;;;;;;4998212;28;20104;-61
2021/12/26 04:15:57;;;;;;;61.33;44.10;;;;;;;;;;4995393;28;20500;-61
2021/12/26 04:18:23;;;;;;;58.43;44.13;;;;;;;;;;5012881;28;20049;-61
2021/12/26 04:20:49;;;;;;;60.67;44.40;;;;;;;;;;5011248;28;20120;-61
2021/12/26 04:23:15;;;;;;;58.97;42.70;;;;;;;;;;5011952;28;20065;-61
2021/12/26 04:25:41;;;;;;;58.43;42.37;;;;;;;;;;5011797;28;20026;-61
2021/12/26 04:28:07;;;;;;;56.73;40.53;;;;;;;;;;5012264;28;20396;-59
2021/12/26 04:30:34;;;;;;;58.27;41.07;;;;;;;;;;5011320;28;20088;-61
2021/12/26 04:33:01;;;;;;;58.50;41.70;;;;;;;;;;5012645;28;20113;-61
2021/12/26 04:35:27;;;;;;;54.23;39.40;;;;;;;;;;5011613;28;20072;-61
2021/12/26 04:37:53;;;;;;;51.80;39.17;;;;;;;;;;5011431;28;20428;-61
2021/12/26 04:40:20;;;;;;;54.30;41.37;;;;;;;;;;5011574;28;20065;-61
2021/12/26 04:42:47;;;;;;;50.17;39.37;;;;;;;;;;5000712;28;20480;-61
2021/12/26 04:45:14;;;;;;;50.90;39.50;;;;;;;;;;5011510;28;20026;-61
2021/12/26 04:47:41;;;;;;;57.17;40.10;;;;;;;;;;5012479;28;20040;-61
2021/12/26 04:50:10;;;;;;;55.00;38.30;;;;;;;;;;5010631;28;20109;-61
2021/12/26 04:52:36;;;;;;;53.43;38.70;;;;;;;;;;4995619;28;20400;-61
2021/12/26 04:55:02;;;;;;;51.33;38.17;;;;;;;;;;5010501;28;20030;-61
2021/12/26 04:57:28;;;;;;;50.70;36.77;;;;;;;;;;4991227;28;20062;-61
2021/12/26 04:59:55;;;;;;;51.13;37.03;;;;;;;;;;5013351;28;20036;-61
2021/12/26 05:02:21;;;;;;;57.13;39.57;;;;;;;;;;5015301;28;20033;-61
2021/12/26 05:04:47;;;;;;;51.43;38.87;;;;;;;;;;5015387;28;20058;-61
2021/12/26 05:07:13;;;;;;;50.43;38.00;;;;;;;;;;5016924;28;20022;-61
2021/12/26 05:09:39;;;;;;;47.33;36.93;;;;;;;;;;5015761;28;20048;-60
2021/12/26 05:12:05;;;;;;;55.47;38.10;;;;;;;;;;5015577;28;20479;-61
2021/12/26 05:14:31;;;;;;;53.00;38.30;;;;;;;;;;5015066;28;20033;-60
2021/12/26 05:16:57;;;;;;;54.80;38.77;;;;;;;;;;5015441;28;20379;-61
2021/12/26 05:19:23;;;;;;;55.57;40.30;;;;;;;;;;5016405;28;20029;-61
2021/12/26 05:21:49;;;;;;;50.67;38.10;;;;;;;;;;5015379;28;20124;-61
2021/12/26 05:24:15;;;;;;;52.87;37.93;;;;;;;;;;5014258;28;20024;-60
2021/12/26 05:26:41;;;;;;;51.83;36.37;;;;;;;;;;4997638;28;20434;-61
2021/12/26 05:29:07;;;;;;;50.97;38.33;;;;;;;;;;5011478;28;20093;-61
2021/12/26 05:31:33;;;;;;;47.93;36.43;;;;;;;;;;5014346;28;20492;-61
2021/12/26 05:33:59;;;;;;;52.63;36.97;;;;;;;;;;5015967;28;20103;-61
2021/12/26 05:36:25;;;;;;;50.40;36.57;;;;;;;;;;5014224;28;20025;-61
2021/12/26 05:38:51;;;;;;;52.77;38.47;;;;;;;;;;5018265;28;20026;-61
2021/12/26 05:41:17;;;;;;;52.23;38.33;;;;;;;;;;5014583;28;20056;-61
2021/12/26 05:43:43;;;;;;;54.53;39.70;;;;;;;;;;5015540;28;20037;-61
2021/12/26 05:46:09;;;;;;;53.17;38.53;;;;;;;;;;4997534;28;20030;-61
2021/12/26 05:48:35;;;;;;;54.50;38.87;;;;;;;;;;5015498;28;20022;-61
2021/12/26 05:51:02;;;;;;;57.23;40.70;;;;;;;;;;5005418;28;20395;-61
2021/12/26 05:53:28;;;;;;;59.43;41.10;;;;;;;;;;5015240;28;20115;-61
2021/12/26 05:55:53;;;;;;;56.03;39.30;;;;;;;;;;5014047;28;20060;-61
2021/12/26 05:58:19;;;;;;;58.50;40.10;;;;;;;;;;5014679;28;20112;-60
2021/12/26 06:00:46;;;;;;;61.60;38.73;;;;;;;;;;5015055;28;20026;-61
2021/12/26 06:03:12;;;;;;;62.60;40.00;;;;;;;;;;4995274;28;20037;-61
2021/12/26 06:05:38;;;;;;;58.60;38.90;;;;;;;;;;5013159;28;20022;-61
2021/12/26 06:08:04;;;;;;;61.63;41.63;;;;;;;;;;5014708;28;20037;-61
2021/12/26 06:10:30;;;;;;;58.57;38.50;;;;;;;;;;5014486;28;20030;-61
2021/12/26 06:12:56;;;;;;;63.17;40.33;;;;;;;;;;5013789;28;20528;-61
2021/12/26 06:15:22;;;;;;;61.93;40.83;;;;;;;;;;5013932;28;20104;-61
2021/12/26 06:17:48;;;;;;;57.67;39.23;;;;;;;;;;4997716;28;20018;-61
2021/12/26 06:20:14;;;;;;;60.60;39.43;;;;;;;;;;5015123;28;20181;-61
2021/12/26 06:22:46;;;;;;;57.07;39.27;;;;;;;;;;5014859;28;20563;-61
2021/12/26 06:25:13;;;;;;;59.73;38.90;;;;;;;;;;5014459;28;20076;-61
2021/12/26 06:27:39;;;;;;;54.77;38.37;;;;;;;;;;5014416;28;20117;-61
2021/12/26 06:30:06;;;;;;;59.07;38.80;;;;;;;;;;4995218;28;20443;-61
2021/12/26 06:32:33;;;;;;;52.87;38.77;;;;;;;;;;5012578;28;20030;-61
2021/12/26 06:35:01;;;;;;;58.27;39.90;;;;;;;;;;5013657;28;20041;-61
2021/12/26 06:37:27;;;;;;;55.07;38.47;;;;;;;;;;5005328;28;20034;-61
2021/12/26 06:39:53;;;;;;;58.40;39.37;;;;;;;;;;5014517;28;20018;-61
2021/12/26 06:42:19;;;;;;;53.83;38.87;;;;;;;;;;5013040;28;20038;-61
2021/12/26 06:44:45;;;;;;;59.17;38.70;;;;;;;;;;4996962;28;20089;-61
2021/12/26 06:47:11;;;;;;;57.90;38.77;;;;;;;;;;5011493;28;20045;-61
2021/12/26 06:49:37;;;;;;;54.67;38.67;;;;;;;;;;5014115;28;20018;-61
2021/12/26 06:52:04;;;;;;;53.03;38.23;;;;;;;;;;5013682;28;20022;-61
2021/12/26 06:54:30;;;;;;;55.20;38.97;;;;;;;;;;5014476;28;20033;-61
2021/12/26 06:56:56;;;;;;;53.17;37.93;;;;;;;;;;5012403;28;20025;-61
2021/12/26 06:59:22;;;;;;;55.73;37.23;;;;;;;;;;5013998;28;20037;-61
2021/12/26 07:01:48;;;;;;;48.20;35.23;;;;;;;;;;5011334;28;20375;-61
2021/12/26 07:04:14;;;;;;;48.33;33.83;;;;;;;;;;4995387;28;20059;-62
2021/12/26 07:06:40;;;;;;;47.30;34.63;;;;;;;;;;5013412;28;20026;-61
2021/12/26 07:09:07;;;;;;;52.53;35.87;;;;;;;;;;5013269;28;20026;-61
2021/12/26 07:11:33;;;;;;;54.43;37.17;;;;;;;;;;5012746;28;20029;-61
2021/12/26 07:13:59;;;;;;;51.87;36.17;;;;;;;;;;5013714;28;20032;-61
2021/12/26 07:16:25;;;;;;;51.97;34.87;;;;;;;;;;5013376;28;20028;-61
2021/12/26 07:18:51;;;;;;;56.03;36.03;;;;;;;;;;4996116;28;20036;-61
2021/12/26 07:21:18;;;;;;;50.83;36.13;;;;;;;;;;4995626;28;20049;-61
2021/12/26 07:23:44;;;;;;;47.17;33.93;;;;;;;;;;5011071;28;20041;-61
2021/12/26 07:26:11;;;;;;;49.27;34.43;;;;;;;;;;5012506;28;20361;-61
2021/12/26 07:28:37;;;;;;;51.90;34.27;;;;;;;;;;5011845;28;20099;-61
2021/12/26 07:31:03;;;;;;;48.57;34.33;;;;;;;;;;4994560;28;20396;-61
2021/12/26 07:33:29;;;;;;;45.97;33.00;;;;;;;;;;5012224;28;20832;-60
2021/12/26 07:35:55;;;;;;;52.93;35.03;;;;;;;;;;5012971;28;20112;-61
2021/12/26 07:38:21;;;;;;;47.23;33.53;;;;;;;;;;5013189;28;20111;-61
2021/12/26 07:43:51;;;;;;;44.37;33.10;;;;;;;;;;5005666;28;20092;-61
2021/12/26 07:46:17;;;;;;;43.93;31.77;;;;;;;;;;5003114;28;20025;-61
2021/12/26 07:48:43;;;;;;;46.67;32.13;;;;;;;;;;5012853;28;20066;-61
2021/12/26 07:51:09;;;;;;;46.93;31.07;;;;;;;;;;5012554;28;20077;-61
2021/12/26 07:53:35;;;;;;;50.10;33.73;;;;;;;;;;5012826;28;20490;-60
2021/12/26 07:56:01;;;;;;;45.83;32.77;;;;;;;;;;4996198;28;20037;-61
2021/12/26 07:58:27;;;;;;;46.73;32.87;;;;;;;;;;5011893;28;20030;-61
2021/12/26 08:00:53;;;;;;;49.33;33.87;;;;;;;;;;5011155;28;20036;-61
2021/12/26 08:03:19;;;;;;;47.83;33.97;;;;;;;;;;4995301;28;20161;-61
2021/12/26 08:05:45;;;;;;;43.77;31.83;;;;;;;;;;5012394;28;20057;-61
2021/12/26 08:08:11;;;;;;;49.00;33.60;;;;;;;;;;5012379;28;20029;-61
2021/12/26 08:10:38;;;;;;;46.40;32.00;;;;;;;;;;5012083;28;20053;-61
2021/12/26 08:13:04;;;;;;;50.33;32.67;;;;;;;;;;5011455;28;20394;-61
2021/12/26 08:15:30;;;;;;;43.60;30.70;;;;;;;;;;5010617;28;20042;-61
2021/12/26 08:17:56;;;;;;;43.53;31.87;;;;;;;;;;5011813;28;20034;-61
2021/12/26 08:20:22;;;;;;;43.73;30.73;;;;;;;;;;5012231;28;20373;-61
2021/12/26 08:22:48;;;;;;;43.50;31.20;;;;;;;;;;5012531;28;20071;-63
2021/12/26 08:25:14;;;;;;;43.17;31.33;;;;;;;;;;5011108;28;20053;-61
2021/12/26 08:27:40;;;;;;;40.17;29.53;;;;;;;;;;5012648;28;20029;-61
2021/12/26 08:30:07;;;;;;;48.63;31.00;;;;;;;;;;5010542;28;20048;-61
2021/12/26 08:32:36;;;;;;;40.77;30.73;;;;;;;;;;5011670;28;20030;-61
2021/12/26 08:35:04;;;;;;;40.53;30.20;;;;;;;;;;4996359;28;20038;-61
2021/12/26 08:37:31;;;;;;;38.60;29.07;;;;;;;;;;5004229;28;20037;-61
2021/12/26 08:39:57;;;;;;;38.30;29.73;;;;;;;;;;5009337;28;20026;-61
2021/12/26 08:42:23;;;;;;;37.57;28.93;;;;;;;;;;5009656;28;20037;-61
2021/12/26 08:44:52;;;;;;;37.27;29.40;;;;;;;;;;5001224;28;20114;-61
2021/12/26 08:47:18;;;;;;;37.13;28.37;;;;;;;;;;5002613;28;20156;-61
2021/12/26 08:49:44;;;;;;;37.60;28.90;;;;;;;;;;5010894;28;20081;-61
2021/12/26 08:52:10;;;;;;;39.00;30.07;;;;;;;;;;4994283;28;20034;-61
2021/12/26 08:54:37;;;;;;;40.23;29.47;;;;;;;;;;5005945;28;20030;-61
2021/12/26 08:57:03;;;;;;;38.93;29.90;;;;;;;;;;5009986;28;20105;-61
2021/12/26 08:59:30;;;;;;;38.90;28.80;;;;;;;;;;5004509;28;20048;-61
2021/12/26 09:02:02;;;;;;;39.63;28.40;;;;;;;;;;4990875;28;20096;-60
2021/12/26 09:04:28;;;;;;;39.23;28.67;;;;;;;;;;5009610;28;20104;-61
2021/12/26 09:06:54;;;;;;;38.60;29.40;;;;;;;;;;4998678;28;20415;-61
2021/12/26 09:09:20;;;;;;;41.37;30.80;;;;;;;;;;5009836;28;20426;-61
2021/12/26 09:11:46;;;;;;;41.80;32.33;;;;;;;;;;5010783;28;20037;-62
2021/12/26 09:14:12;;;;;;;44.40;32.43;;;;;;;;;;5010324;28;20092;-62
2021/12/26 09:16:38;;;;;;;45.63;33.50;;;;;;;;;;5011021;28;20062;-62
2021/12/26 09:19:05;;;;;;;43.97;34.87;;;;;;;;;;5011419;28;20037;-62
2021/12/26 09:21:31;;;;;;;48.83;36.53;;;;;;;;;;5011772;28;20101;-62
2021/12/26 09:23:57;;;;;;;50.27;37.20;;;;;;;;;;4995476;28;20034;-62
2021/12/26 09:26:23;;;;;;;51.60;38.57;;;;;;;;;;5011081;28;20968;-62
2021/12/26 09:28:49;;;;;;;51.37;38.53;;;;;;;;;;4940024;28;1526321;-59
2021/12/26 09:31:15;;;;;;;54.03;40.60;;;;;;;;;;4994635;28;20022;-62
2021/12/26 09:33:41;;;;;;;53.73;41.47;;;;;;;;;;5010748;28;20053;-60
2021/12/26 09:36:08;;;;;;;49.07;39.77;;;;;;;;;;5011075;28;20084;-60
2021/12/26 09:38:34;;;;;;;50.67;37.57;;;;;;;;;;5009755;28;20476;-60
2021/12/26 09:41:00;;;;;;;53.97;37.73;;;;;;;;;;5012156;28;20057;-60
2021/12/26 09:43:26;;;;;;;53.40;37.27;;;;;;;;;;5012867;28;20042;-60
2021/12/26 09:45:52;;;;;;;48.17;36.10;;;;;;;;;;5013428;28;20468;-61
2021/12/26 09:48:18;;;;;;;46.63;35.50;;;;;;;;;;5017003;28;20037;-60
2021/12/26 09:50:45;;;;;;;49.77;36.90;;;;;;;;;;5015072;28;20502;-60
2021/12/26 09:53:11;;;;;;;47.00;36.20;;;;;;;;;;5016358;28;20029;-60
2021/12/26 09:55:37;;;;;;;48.90;36.73;;;;;;;;;;5019985;28;20382;-61
2021/12/26 09:58:03;;;;;;;45.87;35.10;;;;;;;;;;5011605;28;20387;-61
2021/12/26 10:00:29;;;;;;;48.53;36.37;;;;;;;;;;5021725;28;20038;-61
2021/12/26 10:03:14;;;;;;;48.70;39.00;;;;;;;;;;5020352;28;20092;-61
2021/12/26 10:05:59;;;;;;;38.25;29.50;;;;;;;;;;5014039;28;20092;-62
2021/12/26 10:08:25;;;;;;;46.47;35.85;;;;;;;;;;5018589;28;20026;-61
2021/12/26 10:11:06;;;;;;;50.30;37.37;;;;;;;;;;5018698;28;20491;-60
2021/12/26 10:13:44;;;;;;;49.93;37.37;;;;;;;;;;5010582;28;20122;-61
2021/12/26 10:16:10;;;;;;;50.70;38.17;;;;;;;;;;5014499;28;20471;-64
2021/12/26 10:18:40;;;;;;;54.77;40.13;;;;;;;;;;5014447;28;20025;-61
2021/12/26 10:21:25;;;;;;;54.57;39.23;;;;;;;;;;5010992;28;20033;-61
2021/12/26 10:23:52;;;;;;;53.60;39.17;;;;;;;;;;5013284;28;20172;-60
2021/12/26 10:26:22;;;;;;;49.37;37.43;;;;;;;;;;5015295;28;20482;-61
2021/12/26 10:29:08;;;;;;;51.50;37.67;;;;;;;;;;5011830;28;20042;-62
2021/12/26 10:31:42;;;;;;;49.53;37.27;;;;;;;;;;5015173;28;20547;-61
2021/12/26 10:34:14;;;;;;;47.57;36.80;;;;;;;;;;5010048;28;20022;-61
2021/12/26 10:36:47;;;;;;;52.53;37.87;;;;;;;;;;5003257;28;20041;-61
2021/12/26 10:39:17;;;;;;;49.25;39.00;;;;;;;;;;5011685;28;20033;-61
2021/12/26 10:41:44;;;;;;;54.27;40.47;;;;;;;;;;5010312;28;20036;-61
2021/12/26 10:44:39;;;;;;;51.70;38.83;;;;;;;;;;5013949;28;20032;-61
2021/12/26 10:47:07;;;;;;;52.40;39.92;;;;;;;;;;4992298;28;20495;-61
2021/12/26 10:49:35;;;;;;;57.13;40.63;;;;;;;;;;5017702;28;20030;-62
2021/12/26 10:52:02;;;;;;;54.63;41.83;;;;;;;;;;5013406;28;20033;-61
2021/12/26 10:54:31;;;;;;;56.07;41.77;;;;;;;;;;5011924;28;20033;-61
2021/12/26 10:57:04;;;;;;;55.60;39.97;;;;;;;;;;5009179;28;20394;-62
2021/12/26 10:59:30;;;;;;;49.73;38.57;;;;;;;;;;5015044;28;20155;-61
2021/12/26 11:01:56;;;;;;;50.33;40.53;;;;;;;;;;5013571;28;20502;-61
2021/12/26 11:04:26;;;;;;;55.73;42.00;;;;;;;;;;5012490;28;20026;-61
2021/12/26 11:07:03;;;;;;;52.17;41.47;;;;;;;;;;5013815;28;20022;-65
2021/12/26 11:09:29;;;;;;;52.70;40.10;;;;;;;;;;5014572;28;20030;-63
2021/12/26 11:12:03;;;;;;;53.23;40.53;;;;;;;;;;5019246;28;20026;-62
2021/12/26 11:14:29;;;;;;;53.60;41.97;;;;;;;;;;5017187;28;20095;-61
2021/12/26 11:16:55;;;;;;;57.83;43.57;;;;;;;;;;5025079;28;20028;-61
2021/12/26 11:19:59;;;;;;;53.10;42.10;;;;;;;;;;5011169;28;20028;-61
2021/12/26 11:22:26;;;;;;;57.00;42.03;;;;;;;;;;4933620;29;20043;-61
2021/12/26 11:24:57;;;;;;;52.27;41.53;;;;;;;;;;4935399;29;20034;-61
2021/12/26 11:27:24;;;;;;;54.20;42.40;;;;;;;;;;4975472;28;20069;-61
2021/12/26 11:29:50;;;;;;;54.87;42.40;;;;;;;;;;5011349;28;20100;-61
2021/12/26 11:32:17;;;;;;;53.90;42.90;;;;;;;;;;5013708;28;20485;-62
2021/12/26 11:34:45;;;;;;;56.20;43.63;;;;;;;;;;5012821;28;20084;-61
2021/12/26 11:37:11;;;;;;;54.90;43.33;;;;;;;;;;5014332;28;20036;-61
2021/12/26 11:39:39;;;;;;;57.73;44.23;;;;;;;;;;4996111;28;20387;-61
2021/12/26 11:42:05;;;;;;;55.30;43.83;;;;;;;;;;5021534;28;20115;-61
2021/12/26 11:44:37;;;;;;;57.23;43.03;;;;;;;;;;4995548;28;20109;-61
2021/12/26 11:47:24;;;;;;;55.63;44.43;;;;;;;;;;5013929;28;20025;-61
2021/12/26 11:50:08;;;;;;;56.53;43.67;;;;;;;;;;4995765;28;20042;-61
2021/12/26 11:52:37;;;;;;;56.13;44.13;;;;;;;;;;5014166;28;20169;-61
2021/12/26 11:55:15;;;;;;;58.47;46.10;;;;;;;;;;5012939;28;20038;-60
2021/12/26 11:58:00;;;;;;;54.37;43.47;;;;;;;;;;5023660;28;20029;-61
2021/12/26 12:00:27;;;;;;;59.20;44.55;;;;;;;;;;5011071;28;20025;-60
2021/12/26 12:02:54;;;;;;;54.70;43.77;;;;;;;;;;5008976;28;20491;-60
2021/12/26 12:05:25;;;;;;;55.60;44.33;;;;;;;;;;5010984;28;20049;-60
2021/12/26 12:07:56;;;;;;;54.07;42.10;;;;;;;;;;5013270;28;20030;-61
2021/12/26 12:10:31;;;;;;;55.73;43.73;;;;;;;;;;5014894;28;20500;-61
2021/12/26 12:12:56;;;;;;;53.83;41.83;;;;;;;;;;5013226;28;20096;-60
2021/12/26 12:15:41;;;;;;;54.20;43.63;;;;;;;;;;5013204;28;20097;-61
2021/12/26 12:18:09;;;;;;;58.22;44.65;;;;;;;;;;5009576;28;20018;-60
2021/12/26 12:20:35;;;;;;;53.93;43.77;;;;;;;;;;5012387;28;20025;-61
2021/12/26 12:23:04;;;;;;;58.17;43.60;;;;;;;;;;4993749;28;20488;-60
2021/12/26 12:25:33;;;;;;;56.23;41.80;;;;;;;;;;5010969;28;20044;-61
2021/12/26 12:28:10;;;;;;;52.33;42.03;;;;;;;;;;5012930;28;20040;-61
2021/12/26 12:30:41;;;;;;;50.80;41.67;;;;;;;;;;5010723;28;20121;-61
2021/12/26 12:33:13;;;;;;;61.90;43.73;;;;;;;;;;5011817;28;20038;-61
2021/12/26 12:35:48;;;;;;;56.93;44.90;;;;;;;;;;5018415;28;20908;-62
2021/12/26 12:38:22;;;;;;;55.37;43.50;;;;;;;;;;5022063;28;20022;-61
2021/12/26 12:40:48;;;;;;;52.77;42.93;;;;;;;;;;5011174;28;20033;-62
2021/12/26 12:43:19;;;;;;;54.20;41.30;;;;;;;;;;5011626;28;20778;-62
2021/12/26 12:45:56;;;;;;;54.77;43.23;;;;;;;;;;4993596;28;20447;-61
2021/12/26 12:48:25;;;;;;;56.03;43.50;;;;;;;;;;5013067;28;20472;-62
2021/12/26 12:50:52;;;;;;;55.13;42.37;;;;;;;;;;5015138;28;20061;-62
2021/12/26 12:53:55;;;;;;;56.37;43.27;;;;;;;;;;5013249;28;20471;-62
2021/12/26 12:56:30;;;;;;;59.60;44.07;;;;;;;;;;4931668;29;20023;-62
2021/12/26 12:59:14;;;;;;;55.33;43.10;;;;;;;;;;5001144;28;20044;-61
2021/12/26 13:01:42;;;;;;;58.20;44.00;;;;;;;;;;5011343;28;20033;-62
2021/12/26 13:04:08;;;;;;;56.03;44.47;;;;;;;;;;5018528;28;20046;-62
2021/12/26 13:06:34;;;;;;;53.03;40.97;;;;;;;;;;5013600;28;20025;-61
2021/12/26 13:09:00;;;;;;;52.43;42.30;;;;;;;;;;5017807;28;20388;-61
2021/12/26 13:11:29;;;;;;;55.57;43.43;;;;;;;;;;5010428;28;20029;-62
2021/12/26 13:13:58;;;;;;;55.93;43.70;;;;;;;;;;5013283;28;20022;-62
2021/12/26 13:16:31;;;;;;;53.87;43.13;;;;;;;;;;5019659;28;20432;-62
2021/12/26 13:19:04;;;;;;;53.00;42.90;;;;;;;;;;5022678;28;20030;-62
2021/12/26 13:21:30;;;;;;;55.30;42.90;;;;;;;;;;5007873;28;20396;-61
2021/12/26 13:23:56;;;;;;;54.53;42.33;;;;;;;;;;5003132;28;20056;-61
2021/12/26 13:26:22;;;;;;;55.43;43.90;;;;;;;;;;5015633;28;20056;-61
2021/12/26 13:28:50;;;;;;;51.87;43.67;;;;;;;;;;5015342;28;20054;-62
2021/12/26 13:31:23;;;;;;;52.63;41.83;;;;;;;;;;5007607;28;20461;-62
2021/12/26 13:34:08;;;;;;;57.37;44.90;;;;;;;;;;5012879;28;20038;-62
2021/12/26 13:36:34;;;;;;;55.20;42.57;;;;;;;;;;5008715;28;20115;-61
2021/12/26 13:39:00;;;;;;;56.80;44.33;;;;;;;;;;5012553;28;20088;-61
2021/12/26 13:41:29;;;;;;;54.00;44.27;;;;;;;;;;5015512;28;20030;-61
2021/12/26 13:43:59;;;;;;;56.67;44.83;;;;;;;;;;5023177;28;20192;-61
2021/12/26 13:46:27;;;;;;;59.40;45.53;;;;;;;;;;5029025;28;20549;-61
2021/12/26 13:48:55;;;;;;;57.53;43.97;;;;;;;;;;5009734;28;20561;-61
2021/12/26 13:51:23;;;;;;;56.67;44.03;;;;;;;;;;5005765;28;20058;-61
2021/12/26 13:53:52;;;;;;;54.07;43.50;;;;;;;;;;5012356;28;20062;-61
2021/12/26 13:56:18;;;;;;;59.80;44.73;;;;;;;;;;5014479;28;20028;-61
2021/12/26 13:58:45;;;;;;;56.83;46.07;;;;;;;;;;5013373;28;20072;-61
2021/12/26 14:01:11;;;;;;;56.47;43.87;;;;;;;;;;4998103;28;20491;-61
2021/12/26 14:03:38;;;;;;;57.80;46.40;;;;;;;;;;4994459;28;20504;-61
2021/12/26 14:06:04;;;;;;;58.77;45.40;;;;;;;;;;5004994;28;20030;-61
2021/12/26 14:08:31;;;;;;;52.67;43.63;;;;;;;;;;5003404;28;20108;-61
2021/12/26 14:10:57;;;;;;;55.30;45.03;;;;;;;;;;5007097;28;20030;-61
2021/12/26 14:13:23;;;;;;;58.23;45.77;;;;;;;;;;5009846;28;20559;-61
2021/12/26 14:15:55;;;;;;;54.80;44.50;;;;;;;;;;5019589;28;20026;-61
2021/12/26 14:18:25;;;;;;;56.37;44.13;;;;;;;;;;5013305;28;20383;-61
2021/12/26 14:20:53;;;;;;;55.63;44.37;;;;;;;;;;5013107;28;20101;-62
2021/12/26 14:23:19;;;;;;;54.97;43.70;;;;;;;;;;5012839;28;20641;-62